sensor_id;sensor_type;location;lat;lon;timestamp;temperature;humidity
22623;DHT22;11478;51.094;7.030;2022-09-20T00:00:06;8.20;99.90
22623;DHT22;11478;51.094;7.030;2022-09-20T00:02:32;8.20;99.90
22623;DHT22;11478;51.094;7.030;2022-09-20T00:04:58;8.20;99.90
22623;DHT22;11478;51.094;7.030;2022-09-20T00:07:24;8.30;99.90
22623;DHT22;11478;51.094;7.030;2022-09-20T00:09:53;8.20;99.90
22623;DHT22;11478;51.094;7.030;2022-09-20T00:12:18;8.30;99.90
22623;DHT22;11478;51.094;7.030;2022-09-20T00:14:45;8.30;99.90
22623;DHT22;11478;51.094;7.030;2022-09-20T00:17:10;8.40;99.90
22623;DHT22;11478;51.094;7.030;2022-09-20T00:19:38;8.40;99.90
22623;DHT22;11478;51.094;7.030;2022-09-20T00:22:04;8.40;99.90
22623;DHT22;11478;51.094;7.030;2022-09-20T00:24:40;8.50;99.90
22623;DHT22;11478;51.094;7.030;2022-09-20T00:27:10;8.50;99.90
22623;DHT22;11478;51.094;7.030;2022-09-20T00:29:39;8.50;99.90
22623;DHT22;11478;51.094;7.030;2022-09-20T00:32:05;8.60;99.90
22623;DHT22;11478;51.094;7.030;2022-09-20T00:34:34;8.60;99.90
22623;DHT22;11478;51.094;7.030;2022-09-20T00:37:19;8.60;99.90
22623;DHT22;11478;51.094;7.030;2022-09-20T00:39:49;8.60;99.90
22623;DHT22;11478;51.094;7.030;2022-09-20T00:42:16;8.60;99.90
22623;DHT22;11478;51.094;7.030;2022-09-20T00:47:26;8.70;99.90
22623;DHT22;11478;51.094;7.030;2022-09-20T00:53:44;8.70;99.90
22623;DHT22;11478;51.094;7.030;2022-09-20T00:56:33;8.70;99.90
22623;DHT22;11478;51.094;7.030;2022-09-20T00:59:29;8.70;99.90
22623;DHT22;11478;51.094;7.030;2022-09-20T01:02:05;8.70;99.90
22623;DHT22;11478;51.094;7.030;2022-09-20T01:04:49;8.70;99.90
22623;DHT22;11478;51.094;7.030;2022-09-20T01:07:17;8.70;99.90
22623;DHT22;11478;51.094;7.030;2022-09-20T01:09:47;8.70;99.90
22623;DHT22;11478;51.094;7.030;2022-09-20T01:12:17;8.70;99.90
22623;DHT22;11478;51.094;7.030;2022-09-20T01:14:47;8.70;99.90
22623;DHT22;11478;51.094;7.030;2022-09-20T01:17:18;8.70;99.90
22623;DHT22;11478;51.094;7.030;2022-09-20T01:20:10;8.70;99.90
22623;DHT22;11478;51.094;7.030;2022-09-20T01:25:17;8.70;99.90
22623;DHT22;11478;51.094;7.030;2022-09-20T01:27:49;8.70;99.90
22623;DHT22;11478;51.094;7.030;2022-09-20T01:30:39;8.70;99.90
22623;DHT22;11478;51.094;7.030;2022-09-20T01:36:03;8.70;99.90
22623;DHT22;11478;51.094;7.030;2022-09-20T01:41:46;8.80;99.90
22623;DHT22;11478;51.094;7.030;2022-09-20T01:45:17;8.80;99.90
22623;DHT22;11478;51.094;7.030;2022-09-20T01:50:40;8.80;99.90
22623;DHT22;11478;51.094;7.030;2022-09-20T01:56:41;8.80;99.90
22623;DHT22;11478;51.094;7.030;2022-09-20T02:08:45;8.80;99.90
22623;DHT22;11478;51.094;7.030;2022-09-20T02:14:03;8.80;99.90
22623;DHT22;11478;51.094;7.030;2022-09-20T02:16:55;8.80;99.90
22623;DHT22;11478;51.094;7.030;2022-09-20T02:25:17;8.80;99.90
22623;DHT22;11478;51.094;7.030;2022-09-20T02:39:57;8.80;99.90
22623;DHT22;11478;51.094;7.030;2022-09-20T02:47:31;8.80;99.90
22623;DHT22;11478;51.094;7.030;2022-09-20T03:01:37;8.80;99.90
22623;DHT22;11478;51.094;7.030;2022-09-20T03:18:17;8.80;99.90
22623;DHT22;11478;51.094;7.030;2022-09-20T03:24:17;8.90;99.90
22623;DHT22;11478;51.094;7.030;2022-09-20T03:26:54;8.90;99.90
22623;DHT22;11478;51.094;7.030;2022-09-20T03:46:16;8.90;99.90
22623;DHT22;11478;51.094;7.030;2022-09-20T03:51:44;8.90;99.90
22623;DHT22;11478;51.094;7.030;2022-09-20T04:05:18;8.90;99.90
22623;DHT22;11478;51.094;7.030;2022-09-20T04:08:14;8.80;99.90
22623;DHT22;11478;51.094;7.030;2022-09-20T04:11:26;8.80;99.90
22623;DHT22;11478;51.094;7.030;2022-09-20T04:16:56;8.80;99.90
22623;DHT22;11478;51.094;7.030;2022-09-20T04:19:37;8.80;99.90
22623;DHT22;11478;51.094;7.030;2022-09-20T04:22:12;8.90;99.90
22623;DHT22;11478;51.094;7.030;2022-09-20T04:25:12;8.90;99.90
22623;DHT22;11478;51.094;7.030;2022-09-20T04:27:51;8.90;99.90
22623;DHT22;11478;51.094;7.030;2022-09-20T04:30:22;8.90;99.90
22623;DHT22;11478;51.094;7.030;2022-09-20T04:36:25;8.90;99.90
22623;DHT22;11478;51.094;7.030;2022-09-20T04:45:00;8.90;99.90
22623;DHT22;11478;51.094;7.030;2022-09-20T04:47:41;8.90;99.90
22623;DHT22;11478;51.094;7.030;2022-09-20T04:59:07;8.80;99.90
22623;DHT22;11478;51.094;7.030;2022-09-20T05:02:00;8.80;99.90
22623;DHT22;11478;51.094;7.030;2022-09-20T05:14:23;8.90;99.90
22623;DHT22;11478;51.094;7.030;2022-09-20T05:19:31;8.90;99.90
22623;DHT22;11478;51.094;7.030;2022-09-20T05:46:20;9.00;99.90
22623;DHT22;11478;51.094;7.030;2022-09-20T05:48:58;9.00;99.90
22623;DHT22;11478;51.094;7.030;2022-09-20T06:00:09;9.00;99.90
22623;DHT22;11478;51.094;7.030;2022-09-20T06:16:44;9.20;99.90
22623;DHT22;11478;51.094;7.030;2022-09-20T06:22:04;9.30;99.90
22623;DHT22;11478;51.094;7.030;2022-09-20T06:25:00;9.30;99.90
22623;DHT22;11478;51.094;7.030;2022-09-20T06:27:38;9.30;99.90
22623;DHT22;11478;51.094;7.030;2022-09-20T06:30:07;9.30;99.90
22623;DHT22;11478;51.094;7.030;2022-09-20T06:33:14;9.40;99.90
22623;DHT22;11478;51.094;7.030;2022-09-20T06:41:41;9.50;99.90
22623;DHT22;11478;51.094;7.030;2022-09-20T06:44:07;9.50;99.90
22623;DHT22;11478;51.094;7.030;2022-09-20T06:46:35;9.60;99.90
22623;DHT22;11478;51.094;7.030;2022-09-20T06:49:01;9.60;99.90
22623;DHT22;11478;51.094;7.030;2022-09-20T06:51:33;9.70;99.90
22623;DHT22;11478;51.094;7.030;2022-09-20T06:54:00;9.70;99.90
22623;DHT22;11478;51.094;7.030;2022-09-20T06:56:30;9.80;99.90
22623;DHT22;11478;51.094;7.030;2022-09-20T06:58:56;9.80;99.90
22623;DHT22;11478;51.094;7.030;2022-09-20T07:01:22;9.90;99.90
22623;DHT22;11478;51.094;7.030;2022-09-20T07:03:48;9.90;99.90
22623;DHT22;11478;51.094;7.030;2022-09-20T07:06:15;10.00;99.90
22623;DHT22;11478;51.094;7.030;2022-09-20T07:08:42;10.10;99.90
22623;DHT22;11478;51.094;7.030;2022-09-20T07:11:15;10.20;99.90
22623;DHT22;11478;51.094;7.030;2022-09-20T07:13:42;10.30;99.90
22623;DHT22;11478;51.094;7.030;2022-09-20T07:16:12;10.60;99.90
22623;DHT22;11478;51.094;7.030;2022-09-20T07:18:41;11.00;99.90
22623;DHT22;11478;51.094;7.030;2022-09-20T07:21:13;11.10;99.90
22623;DHT22;11478;51.094;7.030;2022-09-20T07:23:39;11.10;99.90
22623;DHT22;11478;51.094;7.030;2022-09-20T07:26:05;11.10;99.90
22623;DHT22;11478;51.094;7.030;2022-09-20T07:28:33;11.10;99.90
22623;DHT22;11478;51.094;7.030;2022-09-20T07:31:00;11.20;99.90
22623;DHT22;11478;51.094;7.030;2022-09-20T07:33:26;11.30;99.90
22623;DHT22;11478;51.094;7.030;2022-09-20T07:35:53;11.30;99.90
22623;DHT22;11478;51.094;7.030;2022-09-20T07:38:21;11.40;99.90
22623;DHT22;11478;51.094;7.030;2022-09-20T07:40:59;11.40;99.90
22623;DHT22;11478;51.094;7.030;2022-09-20T07:43:27;11.60;99.90
22623;DHT22;11478;51.094;7.030;2022-09-20T07:45:54;12.00;99.90
22623;DHT22;11478;51.094;7.030;2022-09-20T07:48:28;12.70;99.90
22623;DHT22;11478;51.094;7.030;2022-09-20T07:51:06;13.40;99.90
22623;DHT22;11478;51.094;7.030;2022-09-20T07:53:37;14.10;99.90
22623;DHT22;11478;51.094;7.030;2022-09-20T07:56:14;14.20;99.90
22623;DHT22;11478;51.094;7.030;2022-09-20T07:58:41;14.00;99.90
22623;DHT22;11478;51.094;7.030;2022-09-20T08:01:11;13.70;99.90
22623;DHT22;11478;51.094;7.030;2022-09-20T08:03:41;13.60;99.90
22623;DHT22;11478;51.094;7.030;2022-09-20T08:06:09;13.60;99.90
22623;DHT22;11478;51.094;7.030;2022-09-20T08:08:38;13.60;99.90
22623;DHT22;11478;51.094;7.030;2022-09-20T08:11:13;13.50;99.90
22623;DHT22;11478;51.094;7.030;2022-09-20T08:13:46;13.50;99.90
22623;DHT22;11478;51.094;7.030;2022-09-20T08:16:13;13.50;99.90
22623;DHT22;11478;51.094;7.030;2022-09-20T08:18:52;13.60;99.90
22623;DHT22;11478;51.094;7.030;2022-09-20T08:21:22;14.10;99.90
22623;DHT22;11478;51.094;7.030;2022-09-20T08:23:50;14.60;99.90
22623;DHT22;11478;51.094;7.030;2022-09-20T08:26:18;14.60;99.90
22623;DHT22;11478;51.094;7.030;2022-09-20T08:28:49;14.30;99.90
22623;DHT22;11478;51.094;7.030;2022-09-20T08:31:18;14.00;99.90
22623;DHT22;11478;51.094;7.030;2022-09-20T08:33:47;13.80;99.90
22623;DHT22;11478;51.094;7.030;2022-09-20T08:36:20;13.80;99.90
22623;DHT22;11478;51.094;7.030;2022-09-20T08:38:46;13.60;99.90
22623;DHT22;11478;51.094;7.030;2022-09-20T08:47:31;13.30;99.90
22623;DHT22;11478;51.094;7.030;2022-09-20T08:50:03;13.30;99.90
22623;DHT22;11478;51.094;7.030;2022-09-20T08:52:35;13.20;99.90
22623;DHT22;11478;51.094;7.030;2022-09-20T08:57:41;13.10;99.90
22623;DHT22;11478;51.094;7.030;2022-09-20T09:00:17;13.10;99.90
22623;DHT22;11478;51.094;7.030;2022-09-20T09:02:49;13.10;99.90
22623;DHT22;11478;51.094;7.030;2022-09-20T09:07:58;13.20;99.90
22623;DHT22;11478;51.094;7.030;2022-09-20T09:10:55;13.20;99.90
22623;DHT22;11478;51.094;7.030;2022-09-20T09:13:58;13.10;99.90
22623;DHT22;11478;51.094;7.030;2022-09-20T09:16:45;13.00;99.90
22623;DHT22;11478;51.094;7.030;2022-09-20T09:19:49;12.90;99.90
22623;DHT22;11478;51.094;7.030;2022-09-20T09:22:31;12.80;99.90
22623;DHT22;11478;51.094;7.030;2022-09-20T09:30:37;12.50;99.90
22623;DHT22;11478;51.094;7.030;2022-09-20T09:33:26;12.40;99.90
22623;DHT22;11478;51.094;7.030;2022-09-20T09:36:06;12.30;99.90
22623;DHT22;11478;51.094;7.030;2022-09-20T09:38:38;12.10;99.90
22623;DHT22;11478;51.094;7.030;2022-09-20T09:41:21;12.00;99.90
22623;DHT22;11478;51.094;7.030;2022-09-20T09:44:02;11.80;99.90
22623;DHT22;11478;51.094;7.030;2022-09-20T09:47:00;11.70;99.90
22623;DHT22;11478;51.094;7.030;2022-09-20T09:49:28;11.70;99.90
22623;DHT22;11478;51.094;7.030;2022-09-20T09:54:58;11.60;99.90
22623;DHT22;11478;51.094;7.030;2022-09-20T10:00:20;11.60;99.90
22623;DHT22;11478;51.094;7.030;2022-09-20T10:11:35;12.10;99.90
22623;DHT22;11478;51.094;7.030;2022-09-20T10:14:23;12.20;99.90
22623;DHT22;11478;51.094;7.030;2022-09-20T10:17:17;12.30;99.90
22623;DHT22;11478;51.094;7.030;2022-09-20T10:20:14;12.30;99.90
22623;DHT22;11478;51.094;7.030;2022-09-20T10:25:52;12.30;99.90
22623;DHT22;11478;51.094;7.030;2022-09-20T10:36:52;12.10;99.90
22623;DHT22;11478;51.094;7.030;2022-09-20T10:39:35;12.10;99.90
22623;DHT22;11478;51.094;7.030;2022-09-20T10:46:10;12.20;99.90
22623;DHT22;11478;51.094;7.030;2022-09-20T10:48:20;12.30;99.90
22623;DHT22;11478;51.094;7.030;2022-09-20T11:16:22;12.50;99.90
22623;DHT22;11478;51.094;7.030;2022-09-20T11:19:20;12.50;99.90
22623;DHT22;11478;51.094;7.030;2022-09-20T11:27:50;12.40;99.90
22623;DHT22;11478;51.094;7.030;2022-09-20T11:30:19;12.40;99.90
22623;DHT22;11478;51.094;7.030;2022-09-20T11:33:07;12.30;99.90
22623;DHT22;11478;51.094;7.030;2022-09-20T11:35:53;12.30;99.90
22623;DHT22;11478;51.094;7.030;2022-09-20T11:41:29;12.30;99.90
22623;DHT22;11478;51.094;7.030;2022-09-20T11:44:05;12.30;99.90
22623;DHT22;11478;51.094;7.030;2022-09-20T11:46:42;12.30;99.90
22623;DHT22;11478;51.094;7.030;2022-09-20T11:52:23;12.30;99.90
22623;DHT22;11478;51.094;7.030;2022-09-20T11:57:33;12.50;99.90
22623;DHT22;11478;51.094;7.030;2022-09-20T12:00:01;12.50;99.90
22623;DHT22;11478;51.094;7.030;2022-09-20T12:02:50;12.50;99.90
22623;DHT22;11478;51.094;7.030;2022-09-20T12:05:39;12.60;99.90
22623;DHT22;11478;51.094;7.030;2022-09-20T12:11:13;12.70;99.90
22623;DHT22;11478;51.094;7.030;2022-09-20T12:13:52;12.70;99.90
22623;DHT22;11478;51.094;7.030;2022-09-20T12:16:47;12.70;99.90
22623;DHT22;11478;51.094;7.030;2022-09-20T12:24:30;12.70;99.90
22623;DHT22;11478;51.094;7.030;2022-09-20T12:26:59;12.80;99.90
22623;DHT22;11478;51.094;7.030;2022-09-20T12:31:53;12.90;99.90
22623;DHT22;11478;51.094;7.030;2022-09-20T12:39:54;13.00;99.90
22623;DHT22;11478;51.094;7.030;2022-09-20T12:42:35;13.00;99.90
22623;DHT22;11478;51.094;7.030;2022-09-20T12:47:52;13.00;99.90
22623;DHT22;11478;51.094;7.030;2022-09-20T12:50:34;12.90;99.90
22623;DHT22;11478;51.094;7.030;2022-09-20T12:53:19;12.90;99.90
22623;DHT22;11478;51.094;7.030;2022-09-20T12:58:50;12.80;99.90
22623;DHT22;11478;51.094;7.030;2022-09-20T13:03:48;12.70;99.90
22623;DHT22;11478;51.094;7.030;2022-09-20T13:09:06;12.60;99.90
22623;DHT22;11478;51.094;7.030;2022-09-20T13:11:40;12.60;99.90
22623;DHT22;11478;51.094;7.030;2022-09-20T13:14:28;12.60;99.90
22623;DHT22;11478;51.094;7.030;2022-09-20T13:19:39;12.50;99.90
22623;DHT22;11478;51.094;7.030;2022-09-20T13:24:52;12.40;99.90
22623;DHT22;11478;51.094;7.030;2022-09-20T13:30:26;12.30;99.90
22623;DHT22;11478;51.094;7.030;2022-09-20T13:33:14;12.30;99.90
22623;DHT22;11478;51.094;7.030;2022-09-20T13:35:40;12.20;99.90
22623;DHT22;11478;51.094;7.030;2022-09-20T13:38:13;12.20;99.90
22623;DHT22;11478;51.094;7.030;2022-09-20T13:40:47;12.20;99.90
22623;DHT22;11478;51.094;7.030;2022-09-20T13:43:42;12.20;99.90
22623;DHT22;11478;51.094;7.030;2022-09-20T13:46:10;12.20;99.90
22623;DHT22;11478;51.094;7.030;2022-09-20T13:48:36;12.20;99.90
22623;DHT22;11478;51.094;7.030;2022-09-20T13:51:02;12.20;99.90
22623;DHT22;11478;51.094;7.030;2022-09-20T13:53:32;12.30;99.90
22623;DHT22;11478;51.094;7.030;2022-09-20T13:55:58;12.40;99.90
22623;DHT22;11478;51.094;7.030;2022-09-20T13:58:31;12.40;99.90
22623;DHT22;11478;51.094;7.030;2022-09-20T14:00:59;12.50;99.90
22623;DHT22;11478;51.094;7.030;2022-09-20T14:03:35;12.50;99.90
22623;DHT22;11478;51.094;7.030;2022-09-20T14:06:10;12.60;99.90
22623;DHT22;11478;51.094;7.030;2022-09-20T14:08:46;12.70;99.90
22623;DHT22;11478;51.094;7.030;2022-09-20T14:13:53;12.80;99.90
22623;DHT22;11478;51.094;7.030;2022-09-20T14:16:38;12.90;99.90
22623;DHT22;11478;51.094;7.030;2022-09-20T14:19:05;13.00;99.90
22623;DHT22;11478;51.094;7.030;2022-09-20T14:21:36;13.00;99.90
22623;DHT22;11478;51.094;7.030;2022-09-20T14:26:41;13.10;99.90
22623;DHT22;11478;51.094;7.030;2022-09-20T14:29:47;13.10;99.90
22623;DHT22;11478;51.094;7.030;2022-09-20T14:35:06;13.20;99.90
22623;DHT22;11478;51.094;7.030;2022-09-20T14:37:47;13.30;99.90
22623;DHT22;11478;51.094;7.030;2022-09-20T14:40:31;13.40;99.90
22623;DHT22;11478;51.094;7.030;2022-09-20T14:43:05;13.60;99.90
22623;DHT22;11478;51.094;7.030;2022-09-20T14:45:42;13.60;99.90
22623;DHT22;11478;51.094;7.030;2022-09-20T14:53:41;13.50;99.90
22623;DHT22;11478;51.094;7.030;2022-09-20T14:56:40;13.50;99.90
22623;DHT22;11478;51.094;7.030;2022-09-20T14:59:22;13.50;99.90
22623;DHT22;11478;51.094;7.030;2022-09-20T15:02:12;13.40;99.90
22623;DHT22;11478;51.094;7.030;2022-09-20T15:04:58;13.40;99.90
22623;DHT22;11478;51.094;7.030;2022-09-20T15:07:28;13.30;99.90
22623;DHT22;11478;51.094;7.030;2022-09-20T15:09:57;13.30;99.90
22623;DHT22;11478;51.094;7.030;2022-09-20T15:12:26;13.20;99.90
22623;DHT22;11478;51.094;7.030;2022-09-20T15:14:57;13.10;99.90
22623;DHT22;11478;51.094;7.030;2022-09-20T15:17:26;13.00;99.90
22623;DHT22;11478;51.094;7.030;2022-09-20T15:20:04;13.00;99.90
22623;DHT22;11478;51.094;7.030;2022-09-20T15:22:30;13.00;99.90
22623;DHT22;11478;51.094;7.030;2022-09-20T15:28:27;13.00;99.90
22623;DHT22;11478;51.094;7.030;2022-09-20T15:30:53;13.00;99.90
22623;DHT22;11478;51.094;7.030;2022-09-20T15:33:35;12.90;99.90
22623;DHT22;11478;51.094;7.030;2022-09-20T15:36:02;12.90;99.90
22623;DHT22;11478;51.094;7.030;2022-09-20T15:39:18;12.90;99.90
22623;DHT22;11478;51.094;7.030;2022-09-20T15:41:46;12.90;99.90
22623;DHT22;11478;51.094;7.030;2022-09-20T15:44:22;12.90;99.90
22623;DHT22;11478;51.094;7.030;2022-09-20T15:46:51;12.90;99.90
22623;DHT22;11478;51.094;7.030;2022-09-20T15:49:26;12.90;99.90
22623;DHT22;11478;51.094;7.030;2022-09-20T15:51:55;12.90;99.90
22623;DHT22;11478;51.094;7.030;2022-09-20T15:54:31;12.80;99.90
22623;DHT22;11478;51.094;7.030;2022-09-20T15:57:01;12.80;99.90
22623;DHT22;11478;51.094;7.030;2022-09-20T15:59:37;12.80;99.90
22623;DHT22;11478;51.094;7.030;2022-09-20T16:02:08;12.80;99.90
22623;DHT22;11478;51.094;7.030;2022-09-20T16:04:36;12.80;99.90
22623;DHT22;11478;51.094;7.030;2022-09-20T16:07:02;12.80;99.90
22623;DHT22;11478;51.094;7.030;2022-09-20T16:09:34;12.80;99.90
22623;DHT22;11478;51.094;7.030;2022-09-20T16:12:08;12.80;99.90
22623;DHT22;11478;51.094;7.030;2022-09-20T16:14:37;12.70;99.90
22623;DHT22;11478;51.094;7.030;2022-09-20T16:17:14;12.70;99.90
22623;DHT22;11478;51.094;7.030;2022-09-20T16:19:43;12.60;99.90
22623;DHT22;11478;51.094;7.030;2022-09-20T16:22:13;12.50;99.90
22623;DHT22;11478;51.094;7.030;2022-09-20T16:24:52;12.50;99.90
22623;DHT22;11478;51.094;7.030;2022-09-20T16:27:18;12.50;99.90
22623;DHT22;11478;51.094;7.030;2022-09-20T16:29:45;12.50;99.90
22623;DHT22;11478;51.094;7.030;2022-09-20T16:32:12;12.40;99.90
22623;DHT22;11478;51.094;7.030;2022-09-20T16:34:48;12.40;99.90
22623;DHT22;11478;51.094;7.030;2022-09-20T16:37:23;12.40;99.90
22623;DHT22;11478;51.094;7.030;2022-09-20T16:39:51;12.40;99.90
22623;DHT22;11478;51.094;7.030;2022-09-20T16:42:26;12.40;99.90
22623;DHT22;11478;51.094;7.030;2022-09-20T16:44:52;12.40;99.90
22623;DHT22;11478;51.094;7.030;2022-09-20T16:47:33;12.40;99.90
22623;DHT22;11478;51.094;7.030;2022-09-20T16:50:06;12.30;99.90
22623;DHT22;11478;51.094;7.030;2022-09-20T16:52:35;12.30;99.90
22623;DHT22;11478;51.094;7.030;2022-09-20T16:55:01;12.30;99.90
22623;DHT22;11478;51.094;7.030;2022-09-20T16:57:34;12.30;99.90
22623;DHT22;11478;51.094;7.030;2022-09-20T17:00:01;12.20;99.90
22623;DHT22;11478;51.094;7.030;2022-09-20T17:02:35;12.20;99.90
22623;DHT22;11478;51.094;7.030;2022-09-20T17:05:04;12.20;99.90
22623;DHT22;11478;51.094;7.030;2022-09-20T17:07:31;12.20;99.90
22623;DHT22;11478;51.094;7.030;2022-09-20T17:10:04;12.10;99.90
22623;DHT22;11478;51.094;7.030;2022-09-20T17:12:31;12.10;99.90
22623;DHT22;11478;51.094;7.030;2022-09-20T17:15:01;12.10;99.90
22623;DHT22;11478;51.094;7.030;2022-09-20T17:17:27;12.10;99.90
22623;DHT22;11478;51.094;7.030;2022-09-20T17:19:56;12.10;99.90
22623;DHT22;11478;51.094;7.030;2022-09-20T17:22:21;12.00;99.90
22623;DHT22;11478;51.094;7.030;2022-09-20T17:24:52;12.00;99.90
22623;DHT22;11478;51.094;7.030;2022-09-20T17:27:20;11.90;99.90
22623;DHT22;11478;51.094;7.030;2022-09-20T17:29:49;11.80;99.90
22623;DHT22;11478;51.094;7.030;2022-09-20T17:32:15;11.80;99.90
22623;DHT22;11478;51.094;7.030;2022-09-20T17:34:41;11.70;99.90
22623;DHT22;11478;51.094;7.030;2022-09-20T17:37:07;11.60;99.90
22623;DHT22;11478;51.094;7.030;2022-09-20T17:39:35;11.50;99.90
22623;DHT22;11478;51.094;7.030;2022-09-20T17:42:00;11.40;99.90
22623;DHT22;11478;51.094;7.030;2022-09-20T17:44:34;11.40;99.90
22623;DHT22;11478;51.094;7.030;2022-09-20T17:47:02;11.30;99.90
22623;DHT22;11478;51.094;7.030;2022-09-20T17:49:29;11.20;99.90
22623;DHT22;11478;51.094;7.030;2022-09-20T17:51:55;11.20;99.90
22623;DHT22;11478;51.094;7.030;2022-09-20T17:54:24;11.10;99.90
22623;DHT22;11478;51.094;7.030;2022-09-20T17:56:53;11.10;99.90
22623;DHT22;11478;51.094;7.030;2022-09-20T17:59:22;11.00;99.90
22623;DHT22;11478;51.094;7.030;2022-09-20T18:01:49;11.00;99.90
22623;DHT22;11478;51.094;7.030;2022-09-20T18:04:16;10.90;99.90
22623;DHT22;11478;51.094;7.030;2022-09-20T18:06:50;10.90;99.90
22623;DHT22;11478;51.094;7.030;2022-09-20T18:09:19;10.80;99.90
22623;DHT22;11478;51.094;7.030;2022-09-20T18:11:47;10.80;99.90
22623;DHT22;11478;51.094;7.030;2022-09-20T18:14:21;10.80;99.90
22623;DHT22;11478;51.094;7.030;2022-09-20T18:16:51;10.70;99.90
22623;DHT22;11478;51.094;7.030;2022-09-20T18:19:18;10.70;99.90
22623;DHT22;11478;51.094;7.030;2022-09-20T18:21:45;10.70;99.90
22623;DHT22;11478;51.094;7.030;2022-09-20T18:24:12;10.60;99.90
22623;DHT22;11478;51.094;7.030;2022-09-20T18:26:38;10.60;99.90
22623;DHT22;11478;51.094;7.030;2022-09-20T18:29:09;10.60;99.90
22623;DHT22;11478;51.094;7.030;2022-09-20T18:31:42;10.60;99.90
22623;DHT22;11478;51.094;7.030;2022-09-20T18:34:21;10.60;99.90
22623;DHT22;11478;51.094;7.030;2022-09-20T18:36:50;10.50;99.90
22623;DHT22;11478;51.094;7.030;2022-09-20T18:39:26;10.50;99.90
22623;DHT22;11478;51.094;7.030;2022-09-20T18:41:53;10.40;99.90
22623;DHT22;11478;51.094;7.030;2022-09-20T18:44:20;10.40;99.90
22623;DHT22;11478;51.094;7.030;2022-09-20T18:46:46;10.40;99.90
22623;DHT22;11478;51.094;7.030;2022-09-20T18:49:22;10.30;99.90
22623;DHT22;11478;51.094;7.030;2022-09-20T18:51:48;10.30;99.90
22623;DHT22;11478;51.094;7.030;2022-09-20T18:54:17;10.30;99.90
22623;DHT22;11478;51.094;7.030;2022-09-20T18:56:45;10.20;99.90
22623;DHT22;11478;51.094;7.030;2022-09-20T18:59:17;10.10;99.90
22623;DHT22;11478;51.094;7.030;2022-09-20T19:07:24;10.10;99.90
22623;DHT22;11478;51.094;7.030;2022-09-20T19:21:41;9.90;99.90
22623;DHT22;11478;51.094;7.030;2022-09-20T19:26:56;9.80;99.90
22623;DHT22;11478;51.094;7.030;2022-09-20T19:29:25;9.80;99.90
22623;DHT22;11478;51.094;7.030;2022-09-20T19:31:54;9.80;99.90
22623;DHT22;11478;51.094;7.030;2022-09-20T19:34:26;9.80;99.90
22623;DHT22;11478;51.094;7.030;2022-09-20T19:37:40;9.70;99.90
22623;DHT22;11478;51.094;7.030;2022-09-20T19:43:42;9.60;99.90
22623;DHT22;11478;51.094;7.030;2022-09-20T19:51:43;9.50;99.90
22623;DHT22;11478;51.094;7.030;2022-09-20T19:54:11;9.50;99.90
22623;DHT22;11478;51.094;7.030;2022-09-20T19:59:12;9.50;99.90
22623;DHT22;11478;51.094;7.030;2022-09-20T20:01:42;9.50;99.90
22623;DHT22;11478;51.094;7.030;2022-09-20T20:04:11;9.50;99.90
22623;DHT22;11478;51.094;7.030;2022-09-20T20:06:48;9.40;99.90
22623;DHT22;11478;51.094;7.030;2022-09-20T20:20:37;9.50;99.90
22623;DHT22;11478;51.094;7.030;2022-09-20T20:26:09;9.40;99.90
22623;DHT22;11478;51.094;7.030;2022-09-20T20:28:42;9.40;99.90
22623;DHT22;11478;51.094;7.030;2022-09-20T20:31:07;9.30;99.90
22623;DHT22;11478;51.094;7.030;2022-09-20T20:33:37;9.30;99.90
22623;DHT22;11478;51.094;7.030;2022-09-20T20:36:19;9.30;99.90
22623;DHT22;11478;51.094;7.030;2022-09-20T20:38:44;9.30;99.90
22623;DHT22;11478;51.094;7.030;2022-09-20T20:41:16;9.30;99.90
22623;DHT22;11478;51.094;7.030;2022-09-20T20:43:43;9.20;99.90
22623;DHT22;11478;51.094;7.030;2022-09-20T20:46:15;9.20;99.90
22623;DHT22;11478;51.094;7.030;2022-09-20T20:48:43;9.20;99.90
22623;DHT22;11478;51.094;7.030;2022-09-20T20:51:21;9.20;99.90
22623;DHT22;11478;51.094;7.030;2022-09-20T20:53:49;9.10;99.90
22623;DHT22;11478;51.094;7.030;2022-09-20T20:56:21;9.10;99.90
22623;DHT22;11478;51.094;7.030;2022-09-20T20:58:48;9.10;99.90
22623;DHT22;11478;51.094;7.030;2022-09-20T21:04:29;9.00;99.90
22623;DHT22;11478;51.094;7.030;2022-09-20T21:07:02;9.00;99.90
22623;DHT22;11478;51.094;7.030;2022-09-20T21:09:28;9.00;99.90
22623;DHT22;11478;51.094;7.030;2022-09-20T21:12:03;9.00;99.90
22623;DHT22;11478;51.094;7.030;2022-09-20T21:14:29;9.00;99.90
22623;DHT22;11478;51.094;7.030;2022-09-20T21:16:58;9.00;99.90
22623;DHT22;11478;51.094;7.030;2022-09-20T21:19:24;9.00;99.90
22623;DHT22;11478;51.094;7.030;2022-09-20T21:21:52;8.90;99.90
22623;DHT22;11478;51.094;7.030;2022-09-20T21:24:18;8.90;99.90
22623;DHT22;11478;51.094;7.030;2022-09-20T21:26:44;8.80;99.90
22623;DHT22;11478;51.094;7.030;2022-09-20T21:29:12;8.80;99.90
22623;DHT22;11478;51.094;7.030;2022-09-20T21:31:42;8.70;99.90
22623;DHT22;11478;51.094;7.030;2022-09-20T21:34:10;8.60;99.90
22623;DHT22;11478;51.094;7.030;2022-09-20T21:36:37;8.60;99.90
22623;DHT22;11478;51.094;7.030;2022-09-20T21:39:04;8.60;99.90
22623;DHT22;11478;51.094;7.030;2022-09-20T21:41:32;8.60;99.90
22623;DHT22;11478;51.094;7.030;2022-09-20T21:44:06;8.60;99.90
22623;DHT22;11478;51.094;7.030;2022-09-20T21:46:36;8.60;99.90
22623;DHT22;11478;51.094;7.030;2022-09-20T21:49:08;8.60;99.90
22623;DHT22;11478;51.094;7.030;2022-09-20T21:51:36;8.60;99.90
22623;DHT22;11478;51.094;7.030;2022-09-20T21:54:07;8.50;99.90
22623;DHT22;11478;51.094;7.030;2022-09-20T21:56:37;8.50;99.90
22623;DHT22;11478;51.094;7.030;2022-09-20T21:59:05;8.40;99.90
22623;DHT22;11478;51.094;7.030;2022-09-20T22:01:34;8.40;99.90
22623;DHT22;11478;51.094;7.030;2022-09-20T22:04:04;8.30;99.90
22623;DHT22;11478;51.094;7.030;2022-09-20T22:06:35;8.40;99.90
22623;DHT22;11478;51.094;7.030;2022-09-20T22:09:08;8.30;99.90
22623;DHT22;11478;51.094;7.030;2022-09-20T22:11:37;8.30;99.90
22623;DHT22;11478;51.094;7.030;2022-09-20T22:14:07;8.20;99.90
22623;DHT22;11478;51.094;7.030;2022-09-20T22:16:38;8.20;99.90
22623;DHT22;11478;51.094;7.030;2022-09-20T22:19:07;8.20;99.90
22623;DHT22;11478;51.094;7.030;2022-09-20T22:21:39;8.20;99.90
22623;DHT22;11478;51.094;7.030;2022-09-20T22:24:06;8.10;99.90
22623;DHT22;11478;51.094;7.030;2022-09-20T22:26:38;8.10;99.90
22623;DHT22;11478;51.094;7.030;2022-09-20T22:29:05;8.10;99.90
22623;DHT22;11478;51.094;7.030;2022-09-20T22:31:32;8.00;99.90
22623;DHT22;11478;51.094;7.030;2022-09-20T22:34:04;8.10;99.90
22623;DHT22;11478;51.094;7.030;2022-09-20T22:36:33;8.00;99.90
22623;DHT22;11478;51.094;7.030;2022-09-20T22:39:05;8.00;99.90
22623;DHT22;11478;51.094;7.030;2022-09-20T22:41:35;8.00;99.90
22623;DHT22;11478;51.094;7.030;2022-09-20T22:44:04;7.90;99.90
22623;DHT22;11478;51.094;7.030;2022-09-20T22:46:31;7.80;99.90
22623;DHT22;11478;51.094;7.030;2022-09-20T22:48:58;7.80;99.90